Check out our new PWSWeather beta!
PWSweather.com
Personal Weather Stations
Station Observations
TENMILE2
Watts Bar Lake, Ten Mile, TN 37880

Watts Bar LakeTen Mile, TN 37880

Lat: 35.686, Lon: -84.7068

Elevation: 767

Station Type: Davis Vue

http://www.wattsbarweather.org

Latest ConditionsUpdated 1:32:51 PM EST Monday, Feb 24, 2020
Currently Today's Max Today's Min Today's Average
Temperature 43.4°F6.3°C 46.1°F7.8°C 40.2°F4.6°C 42.1°F5.6°C
Dew Point 41.7°F5.4°C 41.7°F5.4°C 34.8°F1.6°C 39.3°F4.1°C
Winds Calm Calm 2.7 mph -4.3 kmh - - 0.3 mph 0.5 kmh
Wind Gusts 1.5 mph2.4 kmh 6.0 mph9.7 kmh - -
Humidity 94% 95% 65% 90%
Pressure 29.97 in1014.9 mb 30.13 in1020.3 mb 29.97 in1014.9 mb -
Precipitation - 0.22 in5.6 mm - -
Hour Temp Dew Point Humidity Winds Wind Gusts Pressure Precip Precip Rate Daily Precip Total
01:32 PM 43.4°F6.3°C 41.7°F5.4°C 94% Calm Calm 1.5 mph2.4 kmh 29.97 in1014.9 mb 0.14 in3.6 mm 0.00 in0.0 mm 0.22 in5.6 mm
01:27 PM 43.3°F6.3°C 41.6°F5.3°C 94% Calm Calm 1.5 mph2.4 kmh 29.97 in1014.9 mb 0.14 in3.6 mm 0.12 in3.0 mm 0.21 in5.3 mm
01:22 PM 43.3°F6.3°C 41.6°F5.3°C 94% 1.3 mph SSE2.1 kmh SSE 1.5 mph2.4 kmh 29.98 in1015.2 mb 0.13 in3.3 mm 0.00 in0.0 mm 0.20 in5.1 mm
01:17 PM 43.2°F6.2°C 41.5°F5.3°C 94% Calm Calm 1.5 mph2.4 kmh 29.98 in1015.2 mb 0.13 in3.3 mm 0.00 in0.0 mm 0.20 in5.1 mm
01:12 PM 43.1°F6.2°C 41.4°F5.2°C 94% Calm Calm 1.5 mph2.4 kmh 29.99 in1015.6 mb 0.13 in3.3 mm 0.12 in3.0 mm 0.19 in4.8 mm
01:07 PM 43.3°F6.3°C 41.6°F5.3°C 94% 1.3 mph SSE2.1 kmh SSE 1.5 mph2.4 kmh 29.99 in1015.6 mb 0.12 in3.0 mm 0.12 in3.0 mm 0.18 in4.6 mm
01:02 PM 43.4°F6.3°C 41.7°F5.4°C 94% Calm Calm 1.5 mph2.4 kmh 29.99 in1015.6 mb 0.11 in2.8 mm 0.01 in0.3 mm 0.16 in4.1 mm
12:57 PM 43.4°F6.3°C 41.7°F5.4°C 94% Calm Calm 1.5 mph2.4 kmh 30.00 in1015.9 mb 0.10 in2.5 mm 0.12 in3.0 mm 0.15 in3.8 mm
12:52 PM 43.4°F6.3°C 41.5°F5.3°C 93% Calm Calm 1.5 mph2.4 kmh 30.01 in1016.3 mb 0.09 in2.3 mm 0.24 in6.1 mm 0.14 in3.6 mm
12:47 PM 43.5°F6.4°C 41.6°F5.3°C 93% Calm Calm 1.5 mph2.4 kmh 30.01 in1016.3 mb 0.07 in1.8 mm 0.36 in9.1 mm 0.12 in3.0 mm
12:42 PM 43.5°F6.4°C 41.6°F5.3°C 93% Calm Calm 1.5 mph2.4 kmh 30.01 in1016.3 mb 0.04 in1.0 mm 0.12 in3.0 mm 0.10 in2.5 mm
12:37 PM 43.5°F6.4°C 41.6°F5.3°C 93% Calm Calm 1.5 mph2.4 kmh 30.01 in1016.3 mb 0.03 in0.8 mm 0.12 in3.0 mm 0.09 in2.3 mm
12:32 PM 43.5°F6.4°C 41.3°F5.2°C 92% Calm Calm 1.5 mph2.4 kmh 30.00 in1015.9 mb 0.02 in0.5 mm 0.12 in3.0 mm 0.08 in2.0 mm
12:27 PM 43.6°F6.4°C 41.4°F5.2°C 92% Calm Calm 1.5 mph2.4 kmh 30.01 in1016.3 mb 0.01 in0.3 mm 0.00 in0.0 mm 0.07 in1.8 mm
12:22 PM 43.6°F6.4°C 41.4°F5.2°C 92% Calm Calm 3.0 mph4.8 kmh 30.01 in1016.3 mb 0.01 in0.3 mm 0.00 in0.0 mm 0.07 in1.8 mm
12:17 PM 43.6°F6.4°C 41.4°F5.2°C 92% Calm Calm 3.0 mph4.8 kmh 30.01 in1016.3 mb 0.01 in0.3 mm 0.12 in3.0 mm 0.07 in1.8 mm
12:12 PM 43.5°F6.4°C 41.3°F5.2°C 92% Calm Calm 3.0 mph4.8 kmh 30.01 in1016.3 mb 0.00 in0.0 mm 0.00 in0.0 mm 0.05 in1.3 mm
12:07 PM 43.4°F6.3°C 41.2°F5.1°C 92% 1.7 mph S2.7 kmh S 3.0 mph4.8 kmh 30.01 in1016.3 mb 0.00 in0.0 mm 0.00 in0.0 mm 0.05 in1.3 mm
12:02 PM 43.2°F6.2°C 41.0°F5.0°C 92% Calm Calm 1.5 mph2.4 kmh 30.01 in1016.3 mb 0.00 in0.0 mm 0.00 in0.0 mm 0.05 in1.3 mm
11:57 AM 43.2°F6.2°C 41.0°F5.0°C 92% Calm Calm 3.0 mph4.8 kmh 30.01 in1016.3 mb 0.00 in0.0 mm 0.00 in0.0 mm 0.05 in1.3 mm
11:52 AM 43.2°F6.2°C 41.0°F5.0°C 92% 1.3 mph NE2.1 kmh NE 3.0 mph4.8 kmh 30.01 in1016.3 mb 0.00 in0.0 mm 0.00 in0.0 mm 0.05 in1.3 mm
11:47 AM 43.1°F6.2°C 40.9°F4.9°C 92% 1.3 mph NE2.1 kmh NE 6.0 mph9.7 kmh 30.02 in1016.6 mb 0.00 in0.0 mm 0.00 in0.0 mm 0.05 in1.3 mm
11:42 AM 43.1°F6.2°C 40.9°F4.9°C 92% 1.3 mph NE2.1 kmh NE 6.0 mph9.7 kmh 30.02 in1016.6 mb 0.00 in0.0 mm 0.00 in0.0 mm 0.05 in1.3 mm
11:37 AM 43.1°F6.2°C 40.9°F4.9°C 92% 1.3 mph SSW2.1 kmh SSW 6.0 mph9.7 kmh 30.02 in1016.6 mb 0.00 in0.0 mm 0.00 in0.0 mm 0.05 in1.3 mm
11:32 AM 43.0°F6.1°C 40.8°F4.9°C 92% Calm Calm 6.0 mph9.7 kmh 30.02 in1016.6 mb 0.00 in0.0 mm 0.00 in0.0 mm 0.05 in1.3 mm
11:27 AM 43.1°F6.2°C 40.9°F4.9°C 92% 1.3 mph NE2.1 kmh NE 3.0 mph4.8 kmh 30.02 in1016.6 mb 0.00 in0.0 mm 0.00 in0.0 mm 0.05 in1.3 mm
11:22 AM 43.1°F6.2°C 40.9°F4.9°C 92% 1.3 mph SW2.1 kmh SW 4.5 mph7.2 kmh 30.03 in1016.9 mb 0.00 in0.0 mm 0.00 in0.0 mm 0.05 in1.3 mm
11:17 AM 43.0°F6.1°C 40.8°F4.9°C 92% Calm Calm 4.5 mph7.2 kmh 30.03 in1016.9 mb 0.00 in0.0 mm 0.00 in0.0 mm 0.05 in1.3 mm
11:12 AM 42.9°F6.1°C 40.7°F4.8°C 92% Calm Calm 4.5 mph7.2 kmh 30.03 in1016.9 mb 0.00 in0.0 mm 0.00 in0.0 mm 0.05 in1.3 mm
11:07 AM 43.0°F6.1°C 40.8°F4.9°C 92% 1.9 mph SE3.1 kmh SE 4.5 mph7.2 kmh 30.04 in1017.3 mb 0.00 in0.0 mm 0.00 in0.0 mm 0.05 in1.3 mm
11:02 AM 43.0°F6.1°C 40.8°F4.9°C 92% 1.3 mph SSW2.1 kmh SSW 4.5 mph7.2 kmh 30.04 in1017.3 mb 0.00 in0.0 mm 0.00 in0.0 mm 0.05 in1.3 mm
10:57 AM 43.0°F6.1°C 40.8°F4.9°C 92% Calm Calm 4.5 mph7.2 kmh 30.04 in1017.3 mb 0.00 in0.0 mm 0.00 in0.0 mm 0.05 in1.3 mm
10:52 AM 43.0°F6.1°C 40.8°F4.9°C 92% 2.1 mph NE3.4 kmh NE 4.5 mph7.2 kmh 30.03 in1016.9 mb 0.00 in0.0 mm 0.00 in0.0 mm 0.05 in1.3 mm
10:47 AM 42.9°F6.1°C 40.7°F4.8°C 92% 1.3 mph WSW2.1 kmh WSW 4.5 mph7.2 kmh 30.04 in1017.3 mb 0.01 in0.3 mm 0.00 in0.0 mm 0.05 in1.3 mm
10:42 AM 42.8°F6.0°C 40.6°F4.8°C 92% 1.3 mph SW2.1 kmh SW 4.5 mph7.2 kmh 30.04 in1017.3 mb 0.01 in0.3 mm 0.00 in0.0 mm 0.05 in1.3 mm
10:37 AM 42.9°F6.1°C 41.0°F5.0°C 93% Calm Calm 4.5 mph7.2 kmh 30.04 in1017.3 mb 0.01 in0.3 mm 0.00 in0.0 mm 0.05 in1.3 mm
10:32 AM 42.7°F5.9°C 40.8°F4.9°C 93% 1.3 mph E2.1 kmh E 4.5 mph7.2 kmh 30.04 in1017.3 mb 0.01 in0.3 mm 0.00 in0.0 mm 0.05 in1.3 mm
10:27 AM 42.5°F5.8°C 40.6°F4.8°C 93% 2.0 mph ENE3.2 kmh ENE 6.0 mph9.7 kmh 30.03 in1016.9 mb 0.01 in0.3 mm 0.00 in0.0 mm 0.05 in1.3 mm
10:22 AM 42.2°F5.7°C 40.3°F4.6°C 93% 1.3 mph E2.1 kmh E 6.0 mph9.7 kmh 30.04 in1017.3 mb 0.01 in0.3 mm 0.00 in0.0 mm 0.05 in1.3 mm
10:17 AM 42.2°F5.7°C 40.3°F4.6°C 93% 1.3 mph NE2.1 kmh NE 6.0 mph9.7 kmh 30.05 in1017.6 mb 0.01 in0.3 mm 0.00 in0.0 mm 0.05 in1.3 mm
10:12 AM 42.0°F5.6°C 39.8°F4.3°C 92% 1.5 mph NE2.4 kmh NE 6.0 mph9.7 kmh 30.05 in1017.6 mb 0.01 in0.3 mm 0.00 in0.0 mm 0.05 in1.3 mm
10:07 AM 42.0°F5.6°C 40.1°F4.5°C 93% 1.7 mph NE2.7 kmh NE 3.0 mph4.8 kmh 30.06 in1017.9 mb 0.01 in0.3 mm 0.00 in0.0 mm 0.05 in1.3 mm
10:02 AM 42.1°F5.6°C 40.2°F4.6°C 93% 1.3 mph ENE2.1 kmh ENE 1.5 mph2.4 kmh 30.06 in1017.9 mb 0.01 in0.3 mm 0.00 in0.0 mm 0.05 in1.3 mm
09:57 AM 42.0°F5.6°C 40.1°F4.5°C 93% Calm Calm 1.5 mph2.4 kmh 30.07 in1018.3 mb 0.01 in0.3 mm 0.00 in0.0 mm 0.05 in1.3 mm
09:52 AM 41.9°F5.5°C 40.0°F4.4°C 93% Calm Calm 1.5 mph2.4 kmh 30.06 in1017.9 mb 0.01 in0.3 mm 0.12 in3.0 mm 0.05 in1.3 mm
09:47 AM 41.8°F5.4°C 39.9°F4.4°C 93% Calm Calm 1.5 mph2.4 kmh 30.07 in1018.3 mb 0.00 in0.0 mm 0.00 in0.0 mm 0.04 in1.0 mm
09:42 AM 41.8°F5.4°C 40.2°F4.6°C 94% 1.3 mph SSW2.1 kmh SSW 3.0 mph4.8 kmh 30.08 in1018.6 mb 0.00 in0.0 mm 0.00 in0.0 mm 0.04 in1.0 mm
09:37 AM 41.8°F5.4°C 40.2°F4.6°C 94% Calm Calm 3.0 mph4.8 kmh 30.08 in1018.6 mb 0.00 in0.0 mm 0.00 in0.0 mm 0.04 in1.0 mm
09:31 AM 41.7°F5.4°C 40.1°F4.5°C 94% Calm Calm 3.0 mph4.8 kmh 30.08 in1018.6 mb 0.00 in0.0 mm 0.00 in0.0 mm 0.04 in1.0 mm
09:26 AM 41.7°F5.4°C 40.1°F4.5°C 94% 1.3 mph SW2.1 kmh SW 3.0 mph4.8 kmh 30.07 in1018.3 mb 0.00 in0.0 mm 0.00 in0.0 mm 0.04 in1.0 mm
09:21 AM 41.7°F5.4°C 40.4°F4.7°C 95% Calm Calm 1.5 mph2.4 kmh 30.07 in1018.3 mb 0.00 in0.0 mm 0.00 in0.0 mm 0.04 in1.0 mm
09:16 AM 41.5°F5.3°C 40.1°F4.5°C 95% Calm Calm 1.5 mph2.4 kmh 30.07 in1018.3 mb 0.00 in0.0 mm 0.00 in0.0 mm 0.04 in1.0 mm
09:11 AM 41.3°F5.2°C 40.0°F4.4°C 95% Calm Calm 1.5 mph2.4 kmh 30.07 in1018.3 mb 0.00 in0.0 mm 0.00 in0.0 mm 0.04 in1.0 mm
09:06 AM 41.3°F5.2°C 40.0°F4.4°C 95% Calm Calm 1.5 mph2.4 kmh 30.08 in1018.6 mb 0.00 in0.0 mm 0.00 in0.0 mm 0.04 in1.0 mm
09:01 AM 41.1°F5.1°C 39.8°F4.3°C 95% Calm Calm 1.5 mph2.4 kmh 30.08 in1018.6 mb 0.00 in0.0 mm 0.00 in0.0 mm 0.04 in1.0 mm
08:56 AM 41.1°F5.1°C 39.8°F4.3°C 95% 1.3 mph SW2.1 kmh SW 1.5 mph2.4 kmh 30.08 in1018.6 mb 0.00 in0.0 mm 0.00 in0.0 mm 0.04 in1.0 mm
08:51 AM 41.0°F5.0°C 39.7°F4.3°C 95% Calm Calm 1.5 mph2.4 kmh 30.08 in1018.6 mb 0.00 in0.0 mm 0.00 in0.0 mm 0.04 in1.0 mm
08:46 AM 40.9°F4.9°C 39.5°F4.2°C 95% 1.3 mph E2.1 kmh E 1.5 mph2.4 kmh 30.08 in1018.6 mb 0.01 in0.3 mm 0.00 in0.0 mm 0.04 in1.0 mm
08:41 AM 40.8°F4.9°C 39.4°F4.1°C 95% Calm Calm -- 30.08 in1018.6 mb 0.01 in0.3 mm 0.00 in0.0 mm 0.04 in1.0 mm
08:36 AM 40.7°F4.8°C 39.4°F4.1°C 95% Calm Calm -- 30.07 in1018.3 mb 0.02 in0.5 mm 0.00 in0.0 mm 0.04 in1.0 mm
08:31 AM 40.6°F4.8°C 39.3°F4.1°C 95% Calm Calm -- 30.07 in1018.3 mb 0.02 in0.5 mm 0.00 in0.0 mm 0.04 in1.0 mm
08:26 AM 40.4°F4.7°C 39.1°F3.9°C 95% Calm Calm -- 30.08 in1018.6 mb 0.02 in0.5 mm 0.00 in0.0 mm 0.04 in1.0 mm
08:21 AM 40.4°F4.7°C 39.1°F3.9°C 95% Calm Calm -- 30.08 in1018.6 mb 0.02 in0.5 mm 0.00 in0.0 mm 0.04 in1.0 mm
08:16 AM 40.3°F4.6°C 38.9°F3.8°C 95% Calm Calm -- 30.08 in1018.6 mb 0.02 in0.5 mm 0.00 in0.0 mm 0.04 in1.0 mm
08:11 AM 40.3°F4.6°C 38.9°F3.8°C 95% Calm Calm -- 30.08 in1018.6 mb 0.02 in0.5 mm 0.00 in0.0 mm 0.04 in1.0 mm
08:06 AM 40.3°F4.6°C 38.9°F3.8°C 95% Calm Calm 1.5 mph2.4 kmh 30.08 in1018.6 mb 0.03 in0.8 mm 0.00 in0.0 mm 0.04 in1.0 mm
08:01 AM 40.3°F4.6°C 39.0°F3.9°C 95% Calm Calm 1.5 mph2.4 kmh 30.08 in1018.6 mb 0.03 in0.8 mm 0.00 in0.0 mm 0.04 in1.0 mm
07:56 AM 40.3°F4.6°C 39.0°F3.9°C 95% Calm Calm 1.5 mph2.4 kmh 30.08 in1018.6 mb 0.03 in0.8 mm 0.00 in0.0 mm 0.04 in1.0 mm
07:51 AM 40.3°F4.6°C 39.0°F3.9°C 95% 1.3 mph E2.1 kmh E 1.5 mph2.4 kmh 30.08 in1018.6 mb 0.03 in0.8 mm 0.12 in3.0 mm 0.04 in1.0 mm
07:46 AM 40.2°F4.6°C 38.6°F3.7°C 94% 1.3 mph E2.1 kmh E 1.5 mph2.4 kmh 30.08 in1018.6 mb 0.02 in0.5 mm 0.00 in0.0 mm 0.03 in0.8 mm
07:41 AM 40.2°F4.6°C 38.6°F3.7°C 94% Calm Calm -- 30.08 in1018.6 mb 0.02 in0.5 mm 0.12 in3.0 mm 0.03 in0.8 mm
07:36 AM 40.2°F4.6°C 38.6°F3.7°C 94% Calm Calm -- 30.07 in1018.3 mb 0.01 in0.3 mm 0.00 in0.0 mm 0.02 in0.5 mm
07:31 AM 40.2°F4.6°C 38.6°F3.7°C 94% Calm Calm -- 30.07 in1018.3 mb 0.01 in0.3 mm 0.00 in0.0 mm 0.02 in0.5 mm
07:26 AM 40.2°F4.6°C 38.6°F3.7°C 94% Calm Calm -- 30.07 in1018.3 mb 0.02 in0.5 mm 0.00 in0.0 mm 0.02 in0.5 mm
07:21 AM 40.2°F4.6°C 38.6°F3.7°C 94% Calm Calm -- 30.07 in1018.3 mb 0.02 in0.5 mm 0.00 in0.0 mm 0.02 in0.5 mm
07:16 AM 40.2°F4.6°C 38.6°F3.7°C 94% Calm Calm -- 30.07 in1018.3 mb 0.02 in0.5 mm 0.00 in0.0 mm 0.02 in0.5 mm
07:11 AM 40.3°F4.6°C 38.7°F3.7°C 94% Calm Calm -- 30.07 in1018.3 mb 0.02 in0.5 mm 0.12 in3.0 mm 0.02 in0.5 mm
07:06 AM 40.3°F4.6°C 38.7°F3.7°C 94% Calm Calm -- 30.07 in1018.3 mb 0.01 in0.3 mm 0.00 in0.0 mm 0.01 in0.3 mm
07:01 AM 40.3°F4.6°C 38.4°F3.6°C 93% Calm Calm -- 30.07 in1018.3 mb 0.01 in0.3 mm 0.00 in0.0 mm 0.01 in0.3 mm
06:56 AM 40.4°F4.7°C 38.5°F3.6°C 93% Calm Calm -- 30.07 in1018.3 mb 0.01 in0.3 mm 0.00 in0.0 mm 0.01 in0.3 mm
06:51 AM 40.5°F4.7°C 38.6°F3.7°C 93% Calm Calm -- 30.07 in1018.3 mb 0.01 in0.3 mm 0.00 in0.0 mm 0.01 in0.3 mm
06:46 AM 40.5°F4.7°C 38.6°F3.7°C 93% Calm Calm -- 30.07 in1018.3 mb 0.01 in0.3 mm 0.00 in0.0 mm 0.01 in0.3 mm
06:41 AM 40.5°F4.7°C 38.6°F3.7°C 93% Calm Calm -- 30.07 in1018.3 mb 0.01 in0.3 mm 0.00 in0.0 mm 0.01 in0.3 mm
06:36 AM 40.6°F4.8°C 38.4°F3.6°C 92% Calm Calm -- 30.07 in1018.3 mb 0.01 in0.3 mm 0.00 in0.0 mm 0.01 in0.3 mm
06:31 AM 40.6°F4.8°C 38.4°F3.6°C 92% Calm Calm -- 30.07 in1018.3 mb 0.01 in0.3 mm 0.12 in3.0 mm 0.01 in0.3 mm
06:26 AM 40.7°F4.8°C 38.5°F3.6°C 92% Calm Calm -- 30.06 in1017.9 mb 0.00 in0.0 mm 0.00 in0.0 mm 0.00 in0.0 mm
06:21 AM 40.8°F4.9°C 38.6°F3.7°C 92% Calm Calm -- 30.06 in1017.9 mb 0.00 in0.0 mm 0.00 in0.0 mm 0.00 in0.0 mm
06:16 AM 40.8°F4.9°C 38.6°F3.7°C 92% Calm Calm -- 30.06 in1017.9 mb 0.00 in0.0 mm 0.00 in0.0 mm 0.00 in0.0 mm
06:11 AM 40.9°F4.9°C 38.7°F3.7°C 92% Calm Calm -- 30.06 in1017.9 mb 0.00 in0.0 mm 0.00 in0.0 mm 0.00 in0.0 mm
06:06 AM 40.9°F4.9°C 38.7°F3.7°C 92% Calm Calm -- 30.06 in1017.9 mb 0.00 in0.0 mm 0.00 in0.0 mm 0.00 in0.0 mm
06:01 AM 40.9°F4.9°C 38.7°F3.7°C 92% Calm Calm -- 30.05 in1017.6 mb 0.00 in0.0 mm 0.00 in0.0 mm 0.00 in0.0 mm
05:56 AM 40.9°F4.9°C 38.7°F3.7°C 92% Calm Calm -- 30.05 in1017.6 mb 0.00 in0.0 mm 0.00 in0.0 mm 0.00 in0.0 mm
05:51 AM 40.9°F4.9°C 38.7°F3.7°C 92% Calm Calm -- 30.05 in1017.6 mb 0.00 in0.0 mm 0.00 in0.0 mm 0.00 in0.0 mm
05:46 AM 40.9°F4.9°C 38.4°F3.6°C 91% Calm Calm -- 30.05 in1017.6 mb 0.00 in0.0 mm 0.00 in0.0 mm 0.00 in0.0 mm
05:41 AM 40.9°F4.9°C 38.4°F3.6°C 91% Calm Calm -- 30.05 in1017.6 mb 0.00 in0.0 mm 0.00 in0.0 mm 0.00 in0.0 mm
05:36 AM 40.9°F4.9°C 38.4°F3.6°C 91% Calm Calm -- 30.05 in1017.6 mb 0.00 in0.0 mm 0.00 in0.0 mm 0.00 in0.0 mm
05:31 AM 40.9°F4.9°C 38.7°F3.7°C 92% Calm Calm -- 30.05 in1017.6 mb 0.00 in0.0 mm 0.00 in0.0 mm 0.00 in0.0 mm
05:26 AM 40.9°F4.9°C 38.7°F3.7°C 92% Calm Calm -- 30.05 in1017.6 mb 0.00 in0.0 mm 0.00 in0.0 mm 0.00 in0.0 mm
05:21 AM 40.8°F4.9°C 38.6°F3.7°C 92% Calm Calm -- 30.05 in1017.6 mb 0.00 in0.0 mm 0.00 in0.0 mm 0.00 in0.0 mm
05:16 AM 40.8°F4.9°C 38.3°F3.5°C 91% Calm Calm -- 30.05 in1017.6 mb 0.00 in0.0 mm 0.00 in0.0 mm 0.00 in0.0 mm
05:11 AM 40.8°F4.9°C 38.3°F3.5°C 91% Calm Calm -- 30.05 in1017.6 mb 0.00 in0.0 mm 0.00 in0.0 mm 0.00 in0.0 mm
05:06 AM 40.9°F4.9°C 38.7°F3.7°C 92% Calm Calm -- 30.05 in1017.6 mb 0.00 in0.0 mm 0.00 in0.0 mm 0.00 in0.0 mm
05:01 AM 41.0°F5.0°C 38.8°F3.8°C 92% Calm Calm -- 30.06 in1017.9 mb 0.00 in0.0 mm 0.00 in0.0 mm 0.00 in0.0 mm
04:56 AM 41.0°F5.0°C 38.8°F3.8°C 92% Calm Calm -- 30.06 in1017.9 mb 0.00 in0.0 mm 0.00 in0.0 mm 0.00 in0.0 mm
04:50 AM 41.0°F5.0°C 38.8°F3.8°C 92% Calm Calm -- 30.06 in1017.9 mb 0.00 in0.0 mm 0.00 in0.0 mm 0.00 in0.0 mm
04:45 AM 41.0°F5.0°C 38.8°F3.8°C 92% Calm Calm -- 30.06 in1017.9 mb 0.00 in0.0 mm 0.00 in0.0 mm 0.00 in0.0 mm
04:40 AM 41.0°F5.0°C 38.8°F3.8°C 92% Calm Calm -- 30.06 in1017.9 mb 0.00 in0.0 mm 0.00 in0.0 mm 0.00 in0.0 mm
04:35 AM 41.0°F5.0°C 38.8°F3.8°C 92% Calm Calm -- 30.06 in1017.9 mb 0.00 in0.0 mm 0.00 in0.0 mm 0.00 in0.0 mm
04:30 AM 41.0°F5.0°C 38.8°F3.8°C 92% Calm Calm -- 30.06 in1017.9 mb 0.00 in0.0 mm 0.00 in0.0 mm 0.00 in0.0 mm
04:25 AM 41.1°F5.1°C 38.9°F3.8°C 92% Calm Calm -- 30.06 in1017.9 mb 0.00 in0.0 mm 0.00 in0.0 mm 0.00 in0.0 mm
04:20 AM 41.1°F5.1°C 38.9°F3.8°C 92% Calm Calm 1.5 mph2.4 kmh 30.06 in1017.9 mb 0.00 in0.0 mm 0.00 in0.0 mm 0.00 in0.0 mm
04:15 AM 41.1°F5.1°C 38.9°F3.8°C 92% Calm Calm 1.5 mph2.4 kmh 30.06 in1017.9 mb 0.00 in0.0 mm 0.00 in0.0 mm 0.00 in0.0 mm
04:10 AM 41.2°F5.1°C 39.0°F3.9°C 92% Calm Calm 1.5 mph2.4 kmh 30.05 in1017.6 mb 0.00 in0.0 mm 0.00 in0.0 mm 0.00 in0.0 mm
04:05 AM 41.2°F5.1°C 39.0°F3.9°C 92% 1.3 mph E2.1 kmh E 1.5 mph2.4 kmh 30.06 in1017.9 mb 0.00 in0.0 mm 0.00 in0.0 mm 0.00 in0.0 mm
04:00 AM 41.2°F5.1°C 39.0°F3.9°C 92% Calm Calm -- 30.06 in1017.9 mb 0.00 in0.0 mm 0.00 in0.0 mm 0.00 in0.0 mm
03:55 AM 41.2°F5.1°C 39.0°F3.9°C 92% Calm Calm -- 30.06 in1017.9 mb 0.00 in0.0 mm 0.00 in0.0 mm 0.00 in0.0 mm
03:50 AM 41.2°F5.1°C 39.0°F3.9°C 92% Calm Calm -- 30.06 in1017.9 mb 0.00 in0.0 mm 0.00 in0.0 mm 0.00 in0.0 mm
03:45 AM 41.2°F5.1°C 39.0°F3.9°C 92% Calm Calm -- 30.05 in1017.6 mb 0.00 in0.0 mm 0.00 in0.0 mm 0.00 in0.0 mm
03:40 AM 41.3°F5.2°C 39.1°F3.9°C 92% Calm Calm -- 30.06 in1017.9 mb 0.00 in0.0 mm 0.00 in0.0 mm 0.00 in0.0 mm
03:35 AM 41.3°F5.2°C 39.1°F3.9°C 92% Calm Calm -- 30.06 in1017.9 mb 0.00 in0.0 mm 0.00 in0.0 mm 0.00 in0.0 mm
03:30 AM 41.3°F5.2°C 39.1°F3.9°C 92% Calm Calm -- 30.07 in1018.3 mb 0.00 in0.0 mm 0.00 in0.0 mm 0.00 in0.0 mm
03:25 AM 41.3°F5.2°C 39.1°F3.9°C 92% Calm Calm -- 30.07 in1018.3 mb 0.00 in0.0 mm 0.00 in0.0 mm 0.00 in0.0 mm
03:20 AM 41.4°F5.2°C 39.2°F4.0°C 92% Calm Calm -- 30.07 in1018.3 mb 0.00 in0.0 mm 0.00 in0.0 mm 0.00 in0.0 mm
03:15 AM 41.4°F5.2°C 39.2°F4.0°C 92% Calm Calm 1.5 mph2.4 kmh 30.07 in1018.3 mb 0.00 in0.0 mm 0.00 in0.0 mm 0.00 in0.0 mm
03:10 AM 41.5°F5.3°C 39.3°F4.1°C 92% Calm Calm 1.5 mph2.4 kmh 30.07 in1018.3 mb 0.00 in0.0 mm 0.00 in0.0 mm 0.00 in0.0 mm
03:05 AM 41.5°F5.3°C 39.3°F4.1°C 92% Calm Calm 1.5 mph2.4 kmh 30.07 in1018.3 mb 0.00 in0.0 mm 0.00 in0.0 mm 0.00 in0.0 mm
03:00 AM 41.5°F5.3°C 39.3°F4.1°C 92% Calm Calm 1.5 mph2.4 kmh 30.08 in1018.6 mb 0.00 in0.0 mm 0.00 in0.0 mm 0.00 in0.0 mm
02:55 AM 41.6°F5.3°C 39.4°F4.1°C 92% Calm Calm 1.5 mph2.4 kmh 30.08 in1018.6 mb 0.00 in0.0 mm 0.00 in0.0 mm 0.00 in0.0 mm
02:50 AM 41.6°F5.3°C 39.4°F4.1°C 92% Calm Calm 1.5 mph2.4 kmh 30.08 in1018.6 mb 0.00 in0.0 mm 0.00 in0.0 mm 0.00 in0.0 mm
02:45 AM 41.6°F5.3°C 39.4°F4.1°C 92% Calm Calm 1.5 mph2.4 kmh 30.09 in1019.0 mb 0.00 in0.0 mm 0.00 in0.0 mm 0.00 in0.0 mm
02:40 AM 41.6°F5.3°C 39.4°F4.1°C 92% Calm Calm 1.5 mph2.4 kmh 30.09 in1019.0 mb 0.00 in0.0 mm 0.00 in0.0 mm 0.00 in0.0 mm
02:35 AM 41.6°F5.3°C 39.4°F4.1°C 92% 1.3 mph E2.1 kmh E 1.5 mph2.4 kmh 30.09 in1019.0 mb 0.00 in0.0 mm 0.00 in0.0 mm 0.00 in0.0 mm
02:30 AM 41.7°F5.4°C 39.2°F4.0°C 91% 1.3 mph E2.1 kmh E 1.5 mph2.4 kmh 30.09 in1019.0 mb 0.00 in0.0 mm 0.00 in0.0 mm 0.00 in0.0 mm
02:25 AM 41.8°F5.4°C 39.3°F4.1°C 91% Calm Calm 1.5 mph2.4 kmh 30.09 in1019.0 mb 0.00 in0.0 mm 0.00 in0.0 mm 0.00 in0.0 mm
02:20 AM 41.8°F5.4°C 39.3°F4.1°C 91% Calm Calm 1.5 mph2.4 kmh 30.10 in1019.3 mb 0.00 in0.0 mm 0.00 in0.0 mm 0.00 in0.0 mm
02:15 AM 41.8°F5.4°C 39.3°F4.1°C 91% Calm Calm 1.5 mph2.4 kmh 30.10 in1019.3 mb 0.00 in0.0 mm 0.00 in0.0 mm 0.00 in0.0 mm
02:10 AM 41.9°F5.5°C 39.1°F3.9°C 90% Calm Calm 1.5 mph2.4 kmh 30.10 in1019.3 mb 0.00 in0.0 mm 0.00 in0.0 mm 0.00 in0.0 mm
02:05 AM 42.0°F5.6°C 39.2°F4.0°C 90% Calm Calm 1.5 mph2.4 kmh 30.11 in1019.6 mb 0.00 in0.0 mm 0.00 in0.0 mm 0.00 in0.0 mm
02:00 AM 42.2°F5.7°C 39.2°F4.0°C 89% Calm Calm 1.5 mph2.4 kmh 30.11 in1019.6 mb 0.00 in0.0 mm 0.00 in0.0 mm 0.00 in0.0 mm
01:55 AM 42.4°F5.8°C 39.3°F4.1°C 89% 1.3 mph E2.1 kmh E 1.5 mph2.4 kmh 30.11 in1019.6 mb 0.00 in0.0 mm 0.00 in0.0 mm 0.00 in0.0 mm
01:50 AM 42.5°F5.8°C 39.2°F4.0°C 88% 1.3 mph E2.1 kmh E 1.5 mph2.4 kmh 30.11 in1019.6 mb 0.00 in0.0 mm 0.00 in0.0 mm 0.00 in0.0 mm
01:45 AM 42.7°F5.9°C 39.1°F3.9°C 87% Calm Calm 1.5 mph2.4 kmh 30.11 in1019.6 mb 0.00 in0.0 mm 0.00 in0.0 mm 0.00 in0.0 mm
01:40 AM 42.9°F6.1°C 39.0°F3.9°C 86% Calm Calm 1.5 mph2.4 kmh 30.11 in1019.6 mb 0.00 in0.0 mm 0.00 in0.0 mm 0.00 in0.0 mm
01:35 AM 43.1°F6.2°C 38.9°F3.8°C 85% Calm Calm 1.5 mph2.4 kmh 30.11 in1019.6 mb 0.00 in0.0 mm 0.00 in0.0 mm 0.00 in0.0 mm
01:30 AM 43.5°F6.4°C 38.7°F3.7°C 83% Calm Calm 1.5 mph2.4 kmh 30.11 in1019.6 mb 0.00 in0.0 mm 0.00 in0.0 mm 0.00 in0.0 mm
01:25 AM 43.7°F6.5°C 38.6°F3.7°C 82% Calm Calm 1.5 mph2.4 kmh 30.11 in1019.6 mb 0.00 in0.0 mm 0.00 in0.0 mm 0.00 in0.0 mm
01:20 AM 44.1°F6.7°C 38.0°F3.3°C 79% Calm Calm 1.5 mph2.4 kmh 30.12 in1020.0 mb 0.00 in0.0 mm 0.00 in0.0 mm 0.00 in0.0 mm
01:15 AM 44.5°F6.9°C 37.8°F3.2°C 77% 1.3 mph E2.1 kmh E 1.5 mph2.4 kmh 30.12 in1020.0 mb 0.00 in0.0 mm 0.00 in0.0 mm 0.00 in0.0 mm
01:10 AM 44.8°F7.1°C 37.1°F2.8°C 74% Calm Calm 1.5 mph2.4 kmh 30.12 in1020.0 mb 0.00 in0.0 mm 0.00 in0.0 mm 0.00 in0.0 mm
01:05 AM 45.2°F7.3°C 36.8°F2.7°C 72% Calm Calm 1.5 mph2.4 kmh 30.13 in1020.3 mb 0.00 in0.0 mm 0.00 in0.0 mm 0.00 in0.0 mm
01:00 AM 45.5°F7.5°C 36.7°F2.6°C 71% Calm Calm 1.5 mph2.4 kmh 30.13 in1020.3 mb 0.00 in0.0 mm 0.00 in0.0 mm 0.00 in0.0 mm
12:55 AM 45.7°F7.6°C 35.8°F2.1°C 68% Calm Calm 1.5 mph2.4 kmh 30.13 in1020.3 mb 0.00 in0.0 mm 0.00 in0.0 mm 0.00 in0.0 mm
12:50 AM 45.8°F7.7°C 35.9°F2.2°C 68% Calm Calm 1.5 mph2.4 kmh 30.12 in1020.0 mb 0.00 in0.0 mm 0.00 in0.0 mm 0.00 in0.0 mm
12:45 AM 45.7°F7.6°C 35.5°F1.9°C 67% 1.3 mph ESE2.1 kmh ESE 1.5 mph2.4 kmh 30.12 in1020.0 mb 0.00 in0.0 mm 0.00 in0.0 mm 0.00 in0.0 mm
12:40 AM 45.9°F7.7°C 36.0°F2.2°C 68% Calm Calm 1.5 mph2.4 kmh 30.12 in1020.0 mb 0.00 in0.0 mm 0.00 in0.0 mm 0.00 in0.0 mm
12:35 AM 46.0°F7.8°C 35.4°F1.9°C 66% Calm Calm 6.0 mph9.7 kmh 30.12 in1020.0 mb 0.00 in0.0 mm 0.00 in0.0 mm 0.00 in0.0 mm
12:29 AM 46.1°F7.8°C 35.5°F1.9°C 66% Calm Calm 6.0 mph9.7 kmh 30.13 in1020.3 mb 0.00 in0.0 mm 0.00 in0.0 mm 0.00 in0.0 mm
12:24 AM 46.0°F7.8°C 35.4°F1.9°C 66% Calm Calm 6.0 mph9.7 kmh 30.13 in1020.3 mb 0.00 in0.0 mm 0.00 in0.0 mm 0.00 in0.0 mm
12:19 AM 45.8°F7.7°C 34.8°F1.6°C 65% 2.7 mph SE4.3 kmh SE 6.0 mph9.7 kmh 30.13 in1020.3 mb 0.00 in0.0 mm 0.00 in0.0 mm 0.00 in0.0 mm
12:14 AM 45.8°F7.7°C 35.6°F2.0°C 67% Calm Calm 3.0 mph4.8 kmh 30.13 in1020.3 mb 0.00 in0.0 mm 0.00 in0.0 mm 0.00 in0.0 mm
12:09 AM 45.8°F7.7°C 35.5°F1.9°C 67% 1.3 mph SE2.1 kmh SE 3.0 mph4.8 kmh 30.13 in1020.3 mb 0.00 in0.0 mm 0.00 in0.0 mm 0.00 in0.0 mm
12:04 AM 45.8°F7.7°C 35.5°F1.9°C 67% Calm Calm 3.0 mph4.8 kmh 30.13 in1020.3 mb 0.00 in0.0 mm 0.00 in0.0 mm 0.00 in0.0 mm